Time;durP1;ratioP1;P1;durP2;ratioP2;P2;SDS_P1;SDS_P2;PMS_P1;PMS_P2;Temp;Humidity;BMP_temperature;BMP_pressure;BME280_temperature;BME280_humidity;BME280_pressure;Samples;Min_cycle;Max_cycle;Signal;HPM_P1;HPM_P2
2023/09/21 00:01:03;;;;;;;10.25;4.18;;;;;;;20.77;67.16;100204.44;5052742;28;20558;-83
2023/09/21 00:03:28;;;;;;;8.98;4.38;;;;;;;20.44;68.52;100179.72;5052688;28;20025;-83
2023/09/21 00:05:56;;;;;;;7.30;4.60;;;;;;;20.73;67.62;100200.66;5069811;28;20471;-83
2023/09/21 00:08:23;;;;;;;7.10;4.13;;;;;;;20.55;69.07;100201.31;5054844;28;20024;-83
2023/09/21 00:10:52;;;;;;;8.40;4.43;;;;;;;20.72;68.18;100196.34;5052609;28;20509;-83
2023/09/21 00:13:18;;;;;;;7.78;4.18;;;;;;;20.62;68.31;100191.81;5052614;28;20175;-83
2023/09/21 00:15:47;;;;;;;7.38;4.55;;;;;;;20.33;68.62;100194.44;5068585;28;20047;-83
2023/09/21 00:18:13;;;;;;;9.35;5.15;;;;;;;20.73;68.44;100199.88;5058652;28;20029;-85
2023/09/21 00:23:08;;;;;;;7.18;4.43;;;;;;;20.68;68.62;100206.16;5064698;28;20687;-83
2023/09/21 00:25:36;;;;;;;7.72;4.57;;;;;;;20.70;67.11;100214.81;5054723;28;20041;-86
2023/09/21 00:28:07;;;;;;;8.80;4.72;;;;;;;20.57;68.63;100207.25;5051662;28;20029;-83
2023/09/21 00:30:36;;;;;;;9.25;5.15;;;;;;;20.69;67.30;100215.88;5053061;28;20414;-83
2023/09/21 00:33:02;;;;;;;8.25;4.75;;;;;;;20.37;68.35;100200.91;5053765;28;20027;-85
2023/09/21 00:35:28;;;;;;;8.10;4.78;;;;;;;20.28;68.01;100224.25;5055498;28;20029;-84
2023/09/21 00:37:54;;;;;;;8.35;4.97;;;;;;;20.09;69.62;100210.53;5062573;28;20032;-83
2023/09/21 00:40:20;;;;;;;9.13;4.30;;;;;;;19.85;70.06;100175.19;5068088;28;20041;-83
2023/09/21 00:42:47;;;;;;;9.45;4.38;;;;;;;19.94;69.36;100186.25;5052510;28;20673;-84
2023/09/21 00:45:14;;;;;;;8.43;4.78;;;;;;;20.15;69.20;100219.47;5059343;28;20029;-83
2023/09/21 00:47:44;;;;;;;6.88;5.00;;;;;;;20.03;69.50;100211.66;5072741;28;20040;-85
2023/09/21 00:50:11;;;;;;;8.98;5.10;;;;;;;20.33;68.67;100194.44;5076665;28;20036;-83
2023/09/21 00:52:42;;;;;;;8.70;4.63;;;;;;;20.23;68.87;100180.97;5060995;28;20047;-84
2023/09/21 00:55:23;;;;;;;10.15;4.90;;;;;;;20.27;68.79;100200.97;5057479;28;20029;-84
2023/09/21 00:57:50;;;;;;;9.15;5.28;;;;;;;20.07;69.43;100191.88;5065830;28;20029;-84
2023/09/21 01:00:16;;;;;;;10.40;4.68;;;;;;;20.07;69.49;100191.06;5058139;28;20087;-86
2023/09/21 01:02:42;;;;;;;7.68;4.80;;;;;;;20.09;70.55;100204.31;5057436;28;20036;-85
2023/09/21 01:05:09;;;;;;;11.35;5.60;;;;;;;20.13;69.29;100211.59;5043302;28;20165;-82
2023/09/21 01:07:36;;;;;;;7.83;5.10;;;;;;;20.02;69.53;100199.19;5063069;28;20025;-83
2023/09/21 01:10:14;;;;;;;7.38;4.90;;;;;;;20.15;69.53;100214.03;5052715;28;20116;-84
2023/09/21 01:12:49;;;;;;;7.70;5.10;;;;;;;19.98;69.27;100195.44;5071515;28;20515;-83
2023/09/21 01:15:15;;;;;;;8.48;5.53;;;;;;;19.63;70.78;100210.69;5055162;28;20044;-83
2023/09/21 01:17:41;;;;;;;8.73;5.32;;;;;;;19.52;71.18;100196.41;5052211;28;20123;-82
2023/09/21 01:20:17;;;;;;;12.85;5.28;;;;;;;19.40;72.28;100204.00;5051710;28;20068;-85
2023/09/21 01:22:49;;;;;;;11.18;5.40;;;;;;;19.57;71.58;100193.66;5051282;28;20039;-84
2023/09/21 01:25:15;;;;;;;9.05;5.53;;;;;;;19.63;70.86;100199.88;5067170;28;20032;-83
2023/09/21 01:27:42;;;;;;;7.93;5.25;;;;;;;19.36;71.19;100192.91;5051481;28;20029;-82
2023/09/21 01:30:11;;;;;;;10.10;5.80;;;;;;;19.14;71.93;100190.53;5051496;28;20040;-83
2023/09/21 01:32:40;;;;;;;8.85;5.40;;;;;;;18.83;73.56;100195.94;5051269;28;20409;-83
2023/09/21 01:35:07;;;;;;;12.15;5.90;;;;;;;18.92;73.15;100198.09;5054086;28;20119;-83
2023/09/21 01:37:33;;;;;;;10.57;6.10;;;;;;;19.18;72.24;100185.38;5051873;28;20025;-84
2023/09/21 01:39:58;;;;;;;10.82;6.38;;;;;;;19.04;71.86;100201.34;5071674;28;20270;-83
2023/09/21 01:42:25;;;;;;;9.88;5.93;;;;;;;19.22;72.38;100214.28;5058354;28;20032;-85
2023/09/21 01:44:51;;;;;;;8.63;5.83;;;;;;;19.07;71.45;100195.41;5050412;28;20025;-83
2023/09/21 01:47:20;;;;;;;9.10;6.07;;;;;;;19.24;71.32;100205.91;5050884;28;20032;-84
2023/09/21 01:49:46;;;;;;;11.82;6.30;;;;;;;19.06;71.68;100183.78;5050530;28;20029;-84
2023/09/21 01:52:11;;;;;;;8.57;5.63;;;;;;;19.39;71.64;100186.13;5050633;28;20025;-83
2023/09/21 01:54:38;;;;;;;8.57;6.18;;;;;;;19.33;70.92;100201.59;5062256;28;20107;-83
2023/09/21 01:57:08;;;;;;;12.48;6.03;;;;;;;19.01;72.43;100186.50;5057525;28;20036;-82
2023/09/21 01:59:33;;;;;;;10.63;5.95;;;;;;;18.77;71.42;100191.59;5050444;28;20095;-83
2023/09/21 02:01:59;;;;;;;12.50;6.38;;;;;;;18.68;71.04;100198.63;5051934;28;20461;-85
2023/09/21 02:04:24;;;;;;;9.23;5.88;;;;;;;18.49;72.64;100206.47;5056629;28;20033;-83
2023/09/21 02:06:50;;;;;;;12.05;6.15;;;;;;;18.45;72.48;100198.06;5061319;28;20021;-83
2023/09/21 02:09:15;;;;;;;9.48;6.07;;;;;;;18.60;72.66;100186.47;5051398;28;20033;-83
2023/09/21 02:11:44;;;;;;;9.68;6.18;;;;;;;18.59;72.41;100175.94;5050539;28;20048;-83
2023/09/21 02:14:11;;;;;;;10.18;6.05;;;;;;;18.77;73.22;100188.91;5049813;28;20628;-83
2023/09/21 02:16:37;;;;;;;9.80;6.40;;;;;;;18.90;72.26;100208.38;5056499;28;20039;-84
2023/09/21 02:19:02;;;;;;;9.73;5.88;;;;;;;18.93;71.91;100199.75;5063631;28;20058;-83
2023/09/21 02:21:29;;;;;;;8.63;5.75;;;;;;;18.86;72.71;100194.63;5050114;28;20031;-83
2023/09/21 02:23:55;;;;;;;12.10;5.70;;;;;;;18.74;72.87;100194.84;5051472;28;20029;-83
2023/09/21 02:26:21;;;;;;;11.38;6.38;;;;;;;18.66;70.62;100184.59;5052151;28;20036;-83
2023/09/21 02:28:48;;;;;;;9.82;6.65;;;;;;;18.73;69.99;100190.50;5066925;28;20032;-83
2023/09/21 02:31:13;;;;;;;15.03;6.50;;;;;;;18.39;72.57;100190.25;5051457;28;20033;-83
2023/09/21 02:33:42;;;;;;;12.50;6.68;;;;;;;18.50;71.59;100180.25;5050860;28;20025;-82
2023/09/21 02:36:17;;;;;;;;;;;;;;;18.86;73.50;100200.81;5050269;28;20040;-83
2023/09/21 02:38:43;;;;;;;12.02;6.90;;;;;;;18.82;71.86;100183.53;5050938;28;19909;-83
2023/09/21 02:41:09;;;;;;;9.32;6.00;;;;;;;18.96;71.03;100174.88;5049553;28;20028;-82
2023/09/21 02:43:34;;;;;;;10.63;6.00;;;;;;;19.21;71.19;100187.56;5049813;28;20025;-82
2023/09/21 02:46:00;;;;;;;9.48;6.00;;;;;;;18.86;70.76;100167.59;5051740;28;20121;-82
2023/09/21 02:48:25;;;;;;;10.05;6.15;;;;;;;18.79;71.74;100157.03;5055932;28;20021;-83
2023/09/21 02:50:50;;;;;;;8.23;5.57;;;;;;;19.10;70.81;100173.22;5053252;28;20383;-82
2023/09/21 02:53:16;;;;;;;10.38;6.45;;;;;;;19.01;71.59;100199.19;5049842;28;20120;-82
2023/09/21 02:55:42;;;;;;;13.18;6.57;;;;;;;18.60;71.99;100150.56;5049779;28;20025;-82
2023/09/21 02:58:13;;;;;;;12.13;6.10;;;;;;;18.79;73.32;100200.28;5065613;28;20072;-83
2023/09/21 03:00:44;;;;;;;13.30;6.65;;;;;;;18.76;72.65;100195.41;5059577;28;20037;-82
2023/09/21 03:03:17;;;;;;;13.30;6.10;;;;;;;18.77;72.70;100175.38;5053824;28;20032;-84
2023/09/21 03:05:48;;;;;;;12.30;5.90;;;;;;;18.57;73.70;100176.22;5055246;28;20083;-83
2023/09/21 03:08:15;;;;;;;11.07;6.15;;;;;;;18.45;73.70;100189.97;5067704;28;20051;-82
2023/09/21 03:10:45;;;;;;;11.60;5.68;;;;;;;18.60;74.23;100201.88;5060091;28;20025;-83
2023/09/21 03:13:18;;;;;;;10.45;5.82;;;;;;;19.48;71.61;100203.44;5053715;28;20036;-83
2023/09/21 03:15:51;;;;;;;11.23;5.90;;;;;;;19.13;70.44;100183.50;5063544;28;20193;-83
2023/09/21 03:18:18;;;;;;;8.02;6.15;;;;;;;19.01;71.08;100166.78;5061532;28;20031;-85
2023/09/21 03:20:45;;;;;;;11.43;6.43;;;;;;;18.93;70.97;100205.94;5060854;28;20167;-82
2023/09/21 03:23:12;;;;;;;10.77;6.45;;;;;;;18.85;73.47;100201.91;5053482;28;20119;-81
2023/09/21 03:25:49;;;;;;;10.18;6.15;;;;;;;18.68;71.69;100167.03;5060854;28;20033;-86
2023/09/21 03:28:18;;;;;;;9.02;6.10;;;;;;;18.92;73.37;100214.31;5062694;28;20033;-81
2023/09/21 03:30:52;;;;;;;12.15;6.47;;;;;;;19.26;71.64;100209.97;5064641;28;20408;-82
2023/09/21 03:33:20;;;;;;;10.55;6.20;;;;;;;18.94;72.05;100202.19;5065978;28;20107;-82
2023/09/21 03:35:45;;;;;;;8.65;5.82;;;;;;;18.92;72.38;100203.50;5054252;28;20021;-81
2023/09/21 03:38:12;;;;;;;8.48;5.82;;;;;;;18.79;73.53;100194.06;5057943;28;20036;-81
2023/09/21 03:40:38;;;;;;;10.32;5.40;;;;;;;18.91;73.12;100212.72;5052521;28;20032;-81
2023/09/21 03:43:06;;;;;;;13.18;6.15;;;;;;;18.92;71.65;100220.56;5053417;28;20024;-81
2023/09/21 03:45:32;;;;;;;9.13;5.65;;;;;;;19.04;72.28;100228.38;5056118;28;20064;-84
2023/09/21 03:47:59;;;;;;;10.43;6.07;;;;;;;18.70;72.69;100242.41;5053920;28;20057;-84
2023/09/21 03:50:25;;;;;;;13.30;6.88;;;;;;;18.53;71.51;100233.72;5052975;28;20567;-86
2023/09/21 03:52:53;;;;;;;13.50;6.53;;;;;;;18.35;72.05;100219.66;5053094;28;20033;-84
2023/09/21 03:55:19;;;;;;;36.95;16.48;;;;;;;18.30;71.52;100233.13;5052765;28;20033;-85
2023/09/21 03:57:48;;;;;;;40.47;21.13;;;;;;;18.45;74.18;100243.97;5055113;28;20028;-84
2023/09/21 04:00:29;;;;;;;49.28;24.55;;;;;;;18.82;72.34;100226.75;5062683;28;20032;-85
2023/09/21 04:02:57;;;;;;;40.17;17.55;;;;;;;18.71;72.98;100206.19;5053902;28;20086;-85
2023/09/21 04:05:26;;;;;;;29.90;15.50;;;;;;;19.07;72.66;100209.72;5073063;28;20056;-84
2023/09/21 04:07:53;;;;;;;36.25;18.45;;;;;;;19.18;70.71;100213.22;5052391;28;20065;-85
2023/09/21 04:10:19;;;;;;;31.88;16.50;;;;;;;19.05;69.46;100221.91;5052692;28;20025;-85
2023/09/21 04:12:47;;;;;;;27.95;13.23;;;;;;;18.83;71.48;100212.16;5052547;28;20025;-84
2023/09/21 04:15:13;;;;;;;28.67;11.15;;;;;;;18.89;70.72;100222.97;5052301;28;20132;-84
2023/09/21 04:17:39;;;;;;;23.25;9.70;;;;;;;18.58;72.78;100212.13;5054577;28;20166;-85
2023/09/21 04:20:09;;;;;;;24.13;10.13;;;;;;;18.48;71.25;100227.22;5071320;28;20119;-85
2023/09/21 04:22:35;;;;;;;30.80;10.30;;;;;;;18.60;73.75;100218.88;5032806;28;20424;-84
2023/09/21 04:25:07;;;;;;;21.17;9.05;;;;;;;18.94;72.61;100237.31;5032165;28;20479;-84
2023/09/21 04:27:38;;;;;;;20.25;8.48;;;;;;;18.74;71.84;100199.47;5050856;28;20025;-86
2023/09/21 04:30:06;;;;;;;24.40;10.35;;;;;;;17.92;73.11;100229.78;5053752;28;20028;-86
2023/09/21 04:32:32;;;;;;;19.35;10.55;;;;;;;17.37;75.67;100225.69;5052406;28;20466;-85
2023/09/21 04:34:58;;;;;;;25.75;12.15;;;;;;;16.88;76.89;100221.28;5052292;28;20542;-86
2023/09/21 04:37:26;;;;;;;22.58;11.30;;;;;;;16.98;76.89;100242.09;5052508;28;20458;-85
2023/09/21 04:39:52;;;;;;;26.13;12.63;;;;;;;17.18;74.82;100219.88;5066851;28;20699;-85
2023/09/21 04:42:18;;;;;;;29.17;12.55;;;;;;;17.41;72.62;100229.47;5056902;28;20035;-86
2023/09/21 04:44:43;;;;;;;35.72;12.05;;;;;;;17.25;74.48;100237.44;5062627;28;20024;-85
2023/09/21 04:47:08;;;;;;;25.80;11.90;;;;;;;17.86;72.76;100244.31;5061868;28;20474;-86
2023/09/21 04:49:40;;;;;;;21.60;10.57;;;;;;;17.62;74.30;100239.31;5055966;28;20108;-85
2023/09/21 04:52:05;;;;;;;24.50;11.93;;;;;;;17.54;75.99;100250.59;5059814;28;20043;-86
2023/09/21 04:54:31;;;;;;;26.65;11.90;;;;;;;17.64;74.93;100215.56;5052073;28;20033;-86
2023/09/21 04:56:56;;;;;;;19.17;9.07;;;;;;;17.83;75.03;100225.94;5057626;28;20561;-87
2023/09/21 04:59:23;;;;;;;18.10;7.65;;;;;;;17.96;73.99;100220.09;5068049;28;20059;-86
2023/09/21 05:01:48;;;;;;;17.58;8.50;;;;;;;17.57;77.61;100223.09;5063417;28;20047;-87
2023/09/21 05:04:14;;;;;;;21.88;8.60;;;;;;;17.41;77.05;100230.28;5051816;28;20540;-86
2023/09/21 05:06:39;;;;;;;22.08;9.73;;;;;;;17.45;77.38;100241.38;5056096;28;20103;-86
2023/09/21 05:09:05;;;;;;;19.33;9.52;;;;;;;17.45;77.94;100230.59;5066979;28;20031;-86
2023/09/21 05:11:38;;;;;;;19.05;9.98;;;;;;;18.18;76.50;100254.16;5051985;28;20036;-85
2023/09/21 05:14:05;;;;;;;20.60;10.07;;;;;;;17.83;76.49;100247.53;5051579;28;20024;-84
2023/09/21 05:16:32;;;;;;;20.58;11.15;;;;;;;17.73;77.71;100233.97;5051174;28;20033;-85
2023/09/21 05:18:57;;;;;;;17.83;11.95;;;;;;;18.03;78.59;100234.13;5053186;28;20043;-86
2023/09/21 05:21:23;;;;;;;18.90;11.90;;;;;;;18.84;75.38;100246.22;5068155;28;20028;-85
2023/09/21 05:23:48;;;;;;;22.98;12.70;;;;;;;18.86;74.82;100238.66;5051184;28;20122;-86
2023/09/21 05:26:13;;;;;;;23.15;13.30;;;;;;;18.71;74.44;100213.47;5068559;28;20039;-85
2023/09/21 05:28:43;;;;;;;25.08;12.00;;;;;;;18.75;74.05;100231.56;5053489;28;20025;-87
2023/09/21 05:31:09;;;;;;;22.75;11.38;;;;;;;18.94;73.53;100220.25;5051076;28;20032;-88
2023/09/21 05:33:36;;;;;;;23.67;12.57;;;;;;;19.32;72.81;100232.41;5051167;28;20170;-85
2023/09/21 05:36:04;;;;;;;15.27;8.65;;;;;;;19.63;72.26;100210.69;5050976;28;20497;-85
2023/09/21 05:38:33;;;;;;;12.20;7.55;;;;;;;20.17;68.75;100220.78;5045649;28;20037;-85
2023/09/21 05:41:06;;;;;;;14.25;7.68;;;;;;;20.46;68.18;100209.25;5065731;28;20027;-84
2023/09/21 05:43:32;;;;;;;14.40;7.82;;;;;;;21.01;66.81;100228.09;5053307;28;20041;-84
2023/09/21 05:45:57;;;;;;;17.33;11.75;;;;;;;20.93;65.89;100228.72;5052104;28;20516;-84
2023/09/21 05:48:25;;;;;;;21.42;13.18;;;;;;;21.01;65.30;100222.69;5052653;28;20413;-85
2023/09/21 05:50:51;;;;;;;;;;;;;;;21.21;64.89;100236.06;5052248;28;20033;-84
2023/09/21 05:53:17;;;;;;;43.95;26.77;;;;;;;20.40;67.73;100219.28;5050235;28;20354;-85
2023/09/21 05:55:45;;;;;;;21.13;12.15;;;;;;;20.32;68.68;100230.72;5050208;28;20028;-84
2023/09/21 05:58:13;;;;;;;20.52;13.73;;;;;;;20.74;67.24;100218.56;5050671;28;20035;-84
2023/09/21 06:00:40;;;;;;;11.02;8.10;;;;;;;20.98;66.91;100247.63;5062396;28;20050;-85
2023/09/21 06:03:06;;;;;;;29.77;17.08;;;;;;;21.32;65.92;100246.81;5059839;28;20402;-84
2023/09/21 06:05:32;;;;;;;15.35;9.25;;;;;;;21.21;65.84;100241.47;5050436;28;20029;-85
2023/09/21 06:07:58;;;;;;;12.18;7.10;;;;;;;21.41;64.49;100269.50;5050357;28;20032;-85
2023/09/21 06:10:24;;;;;;;19.13;9.32;;;;;;;21.27;65.14;100244.97;5051235;28;20033;-84
2023/09/21 06:12:50;;;;;;;12.57;8.00;;;;;;;21.08;65.46;100242.13;5051640;28;20413;-84
2023/09/21 06:15:16;;;;;;;13.75;8.43;;;;;;;21.35;65.55;100265.22;5049879;28;20183;-84
2023/09/21 06:17:42;;;;;;;14.88;7.43;;;;;;;21.80;62.94;100255.81;5050422;28;20032;-84
2023/09/21 06:20:07;;;;;;;13.55;7.53;;;;;;;21.76;62.95;100257.50;5053993;28;20024;-86
2023/09/21 06:22:33;;;;;;;11.27;6.95;;;;;;;21.54;63.83;100260.72;5065619;28;20613;-85
2023/09/21 06:24:59;;;;;;;11.38;6.63;;;;;;;21.78;64.29;100254.47;5050230;28;20036;-84
2023/09/21 06:27:26;;;;;;;12.07;6.65;;;;;;;21.85;63.13;100260.38;5049955;28;20106;-84
2023/09/21 06:29:51;;;;;;;14.65;7.43;;;;;;;22.02;63.14;100268.03;5048276;28;20466;-84
2023/09/21 06:32:20;;;;;;;10.43;6.82;;;;;;;22.24;61.87;100264.81;5067932;28;20031;-85
2023/09/21 06:34:45;;;;;;;10.70;6.82;;;;;;;21.96;64.28;100272.72;5050242;28;20021;-85
2023/09/21 06:37:14;;;;;;;10.23;6.57;;;;;;;21.99;64.07;100274.88;5049688;28;20166;-86
2023/09/21 06:39:40;;;;;;;12.32;6.97;;;;;;;22.22;63.11;100258.84;5047486;28;20035;-85
2023/09/21 06:42:06;;;;;;;14.95;6.57;;;;;;;22.18;63.61;100252.38;5067911;28;20032;-85
2023/09/21 06:44:32;;;;;;;13.10;6.85;;;;;;;22.08;63.46;100254.09;5052168;28;20473;-87
2023/09/21 06:46:57;;;;;;;11.18;6.57;;;;;;;22.04;63.59;100228.63;5050068;28;20020;-86
2023/09/21 06:49:23;;;;;;;9.07;6.05;;;;;;;22.29;62.57;100232.13;5050066;28;20540;-87
2023/09/21 06:51:49;;;;;;;11.82;6.47;;;;;;;21.95;65.06;100246.69;5064526;28;20476;-86
2023/09/21 06:54:15;;;;;;;15.52;6.82;;;;;;;21.21;67.45;100227.91;5055119;28;20036;-85
2023/09/21 06:56:41;;;;;;;9.07;5.75;;;;;;;21.53;66.56;100229.25;5050326;28;20112;-85
2023/09/21 06:59:06;;;;;;;12.63;5.82;;;;;;;21.58;65.58;100248.19;5051644;28;20120;-85
2023/09/21 07:01:34;;;;;;;8.65;5.90;;;;;;;21.81;65.06;100245.78;5053918;28;20040;-85
2023/09/21 07:04:03;;;;;;;9.77;6.07;;;;;;;22.49;63.50;100254.69;5050059;28;20114;-86
2023/09/21 07:06:29;;;;;;;9.60;5.68;;;;;;;22.84;61.04;100265.03;5050359;28;20025;-84
2023/09/21 07:08:55;;;;;;;10.18;5.85;;;;;;;23.01;60.43;100280.00;5049525;28;20025;-86
2023/09/21 07:11:20;;;;;;;8.80;5.28;;;;;;;23.08;59.81;100266.06;5057311;28;20550;-84
2023/09/21 07:13:51;;;;;;;8.43;5.32;;;;;;;23.29;60.20;100266.50;5061634;28;20033;-84
2023/09/21 07:16:18;;;;;;;8.77;5.22;;;;;;;23.50;59.52;100250.59;5052972;28;20036;-87
2023/09/21 07:18:44;;;;;;;14.35;9.88;;;;;;;23.42;59.38;100242.03;5065449;28;20111;-84
2023/09/21 07:21:10;;;;;;;10.88;6.07;;;;;;;23.13;59.71;100255.06;5054962;28;20037;-84
2023/09/21 07:23:35;;;;;;;10.82;6.32;;;;;;;23.33;58.25;100235.66;5065152;28;20529;-85
2023/09/21 07:26:01;;;;;;;16.13;7.32;;;;;;;23.27;59.34;100261.34;5049357;28;20025;-86
2023/09/21 07:28:29;;;;;;;17.55;9.13;;;;;;;23.26;59.05;100252.41;5049874;28;20025;-86
2023/09/21 07:30:55;;;;;;;19.00;9.98;;;;;;;22.86;61.17;100235.66;5051148;28;20036;-85
2023/09/21 07:33:21;;;;;;;10.85;6.18;;;;;;;23.71;57.95;100245.59;5067116;28;20085;-85
2023/09/21 07:35:51;;;;;;;11.57;6.30;;;;;;;24.06;57.18;100249.53;5049527;28;20077;-85
2023/09/21 07:38:19;;;;;;;9.07;5.25;;;;;;;23.44;58.27;100245.28;5049284;28;20040;-86
2023/09/21 07:40:45;;;;;;;8.32;5.10;;;;;;;23.22;58.94;100232.34;5051662;28;20037;-84
2023/09/21 07:43:10;;;;;;;9.27;4.90;;;;;;;23.60;60.16;100234.06;5051003;28;20451;-85
2023/09/21 07:45:36;;;;;;;10.27;4.63;;;;;;;23.59;59.14;100249.63;5052783;28;20040;-85
2023/09/21 07:48:01;;;;;;;7.38;4.63;;;;;;;23.78;57.65;100243.28;5053044;28;20021;-84
2023/09/21 07:50:30;;;;;;;8.80;4.85;;;;;;;23.52;59.30;100241.06;5052944;28;20482;-84
2023/09/21 07:52:56;;;;;;;7.65;4.60;;;;;;;23.70;57.46;100239.34;5055941;28;20033;-84
2023/09/21 07:55:22;;;;;;;9.88;4.85;;;;;;;24.26;56.61;100253.75;5052609;28;20033;-84
2023/09/21 07:57:48;;;;;;;7.90;4.90;;;;;;;24.06;55.83;100239.44;5052815;28;20027;-84
2023/09/21 08:00:15;;;;;;;9.15;5.10;;;;;;;24.29;54.92;100234.03;5052708;28;20032;-84
2023/09/21 08:02:41;;;;;;;7.93;5.07;;;;;;;24.50;55.88;100234.44;5052733;28;20061;-85
2023/09/21 08:05:06;;;;;;;8.73;5.07;;;;;;;24.56;55.23;100240.56;5052441;28;20039;-85
2023/09/21 08:07:33;;;;;;;8.73;5.05;;;;;;;25.04;51.85;100261.78;5052755;28;20029;-85
2023/09/21 08:10:01;;;;;;;10.38;5.15;;;;;;;24.50;54.45;100214.53;5051674;28;20074;-85
2023/09/21 08:12:27;;;;;;;7.68;4.95;;;;;;;24.94;52.02;100232.03;5061514;28;20035;-85
2023/09/21 08:14:53;;;;;;;11.43;4.82;;;;;;;25.19;53.27;100250.50;5062858;28;20136;-88
2023/09/21 08:17:19;;;;;;;8.98;4.72;;;;;;;24.99;51.48;100234.63;5054138;28;20103;-85
2023/09/21 08:19:45;;;;;;;9.60;5.18;;;;;;;25.06;52.21;100224.06;5052322;28;20036;-85
2023/09/21 08:22:10;;;;;;;7.18;4.40;;;;;;;25.54;51.13;100252.59;5057613;28;20021;-85
2023/09/21 08:24:41;;;;;;;9.88;5.13;;;;;;;25.79;50.64;100237.44;5071842;28;20039;-84
2023/09/21 08:27:10;;;;;;;7.90;4.93;;;;;;;25.78;48.67;100246.75;5071011;28;20960;-85
2023/09/21 08:29:36;;;;;;;9.05;4.90;;;;;;;25.39;50.82;100251.09;5055414;28;20029;-85
2023/09/21 08:32:03;;;;;;;8.55;4.47;;;;;;;25.42;49.05;100217.72;5052527;28;20029;-85
2023/09/21 08:34:29;;;;;;;13.15;8.98;;;;;;;25.51;48.71;100226.72;5055975;28;20024;-87
2023/09/21 08:36:54;;;;;;;9.10;5.43;;;;;;;25.05;49.44;100227.94;5072386;28;20546;-85
2023/09/21 08:39:20;;;;;;;8.07;4.88;;;;;;;25.47;48.81;100236.66;5053575;28;20032;-86
2023/09/21 08:41:50;;;;;;;10.20;4.53;;;;;;;25.36;49.79;100224.44;5052344;28;20032;-85
2023/09/21 08:44:19;;;;;;;7.70;4.72;;;;;;;25.50;48.92;100222.41;5032696;28;20488;-84
2023/09/21 08:46:46;;;;;;;8.05;5.05;;;;;;;25.19;49.87;100230.56;5053444;28;20037;-86
2023/09/21 08:49:15;;;;;;;7.30;4.80;;;;;;;25.46;48.79;100229.63;5051397;28;20025;-85
2023/09/21 08:51:42;;;;;;;7.95;5.13;;;;;;;25.93;47.65;100229.13;5051759;28;20386;-85
2023/09/21 08:54:08;;;;;;;9.73;5.95;;;;;;;25.85;47.56;100204.19;5069505;28;20033;-85
2023/09/21 08:56:36;;;;;;;9.75;4.65;;;;;;;25.93;45.69;100210.84;5070851;28;20043;-85
2023/09/21 08:59:03;;;;;;;9.73;4.80;;;;;;;26.29;44.39;100230.81;5058588;28;20497;-85
2023/09/21 09:01:29;;;;;;;8.77;4.88;;;;;;;26.16;45.41;100222.44;5066798;28;20142;-85
2023/09/21 09:03:54;;;;;;;8.07;4.97;;;;;;;25.94;47.88;100223.34;5056391;28;20131;-86
2023/09/21 09:06:20;;;;;;;8.25;4.53;;;;;;;26.00;47.87;100222.09;5052734;28;20029;-84
2023/09/21 09:08:46;;;;;;;9.45;5.22;;;;;;;26.09;48.47;100202.16;5051765;28;20020;-86
2023/09/21 09:11:37;;;;;;;12.75;4.80;;;;;;;26.46;45.26;100228.88;5059720;28;20040;-83
2023/09/21 09:14:04;;;;;;;7.60;4.43;;;;;;;26.56;44.24;100226.94;5056286;28;20049;-85
2023/09/21 09:16:30;;;;;;;9.55;5.05;;;;;;;26.46;44.79;100228.88;5051384;28;20036;-85
2023/09/21 09:18:58;;;;;;;7.60;4.85;;;;;;;26.21;45.59;100226.94;5051416;28;20040;-85
2023/09/21 09:21:23;;;;;;;8.20;4.13;;;;;;;26.41;44.89;100228.25;5051219;28;20059;-83
2023/09/21 09:23:49;;;;;;;9.63;4.50;;;;;;;26.48;45.08;100208.59;5062421;28;20063;-86
2023/09/21 09:26:16;;;;;;;9.43;4.72;;;;;;;26.58;44.04;100206.41;5059115;28;20025;-85
2023/09/21 09:28:41;;;;;;;8.50;4.70;;;;;;;26.40;46.82;100221.19;5050693;28;20179;-85
2023/09/21 09:31:10;;;;;;;7.65;4.60;;;;;;;26.35;45.68;100210.38;5054249;28;20112;-83
2023/09/21 09:33:39;;;;;;;7.60;4.32;;;;;;;26.21;46.11;100202.34;5059406;28;20043;-86
2023/09/21 09:36:04;;;;;;;6.88;4.53;;;;;;;26.70;44.01;100200.25;5063014;28;20028;-85
2023/09/21 09:38:33;;;;;;;7.15;4.60;;;;;;;26.80;43.70;100190.91;5050993;28;20040;-86
2023/09/21 09:41:04;;;;;;;9.05;4.68;;;;;;;26.81;43.63;100193.31;5050614;28;20027;-85
2023/09/21 09:43:30;;;;;;;8.35;4.85;;;;;;;26.84;43.88;100178.19;5058274;28;20036;-84
2023/09/21 09:45:58;;;;;;;9.13;4.63;;;;;;;26.88;44.95;100186.56;5065126;28;20029;-85
2023/09/21 09:48:26;;;;;;;8.73;4.53;;;;;;;27.31;42.97;100188.38;5050635;28;20115;-84
2023/09/21 09:50:55;;;;;;;8.32;4.85;;;;;;;27.29;46.03;100193.38;5053162;28;20432;-85
2023/09/21 09:53:23;;;;;;;8.77;4.78;;;;;;;27.25;45.68;100185.00;5067236;28;20036;-85
2023/09/21 09:55:53;;;;;;;8.52;4.63;;;;;;;27.42;43.79;100175.91;5050146;28;20033;-86
2023/09/21 09:58:20;;;;;;;6.78;4.28;;;;;;;27.45;44.18;100172.53;5052078;28;20037;-85
2023/09/21 10:00:45;;;;;;;8.40;4.30;;;;;;;27.20;44.27;100175.00;5050596;28;20047;-86
2023/09/21 10:03:11;;;;;;;7.55;4.53;;;;;;;26.83;44.59;100188.34;5050685;28;20021;-85
2023/09/21 10:05:39;;;;;;;6.38;4.53;;;;;;;26.26;46.43;100180.31;5050227;28;20029;-87
2023/09/21 10:08:07;;;;;;;14.13;10.23;;;;;;;26.55;46.40;100170.66;5050277;28;20029;-86
2023/09/21 10:10:52;;;;;;;11.30;4.68;;;;;;;26.60;44.66;100170.50;5049762;28;20036;-88
2023/09/21 10:13:18;;;;;;;8.13;4.82;;;;;;;26.52;45.56;100176.75;5067696;28;20063;-85
2023/09/21 10:15:50;;;;;;;10.73;4.73;;;;;;;27.27;44.53;100174.53;5050140;28;20049;-85
2023/09/21 10:18:29;;;;;;;10.20;5.22;;;;;;;27.68;41.78;100175.78;5050462;28;20097;-85
2023/09/21 10:20:58;;;;;;;7.70;4.43;;;;;;;27.73;43.91;100180.28;5050114;28;20036;-86
2023/09/21 10:23:27;;;;;;;11.07;5.10;;;;;;;28.42;41.76;100190.75;5053075;28;20029;-85
2023/09/21 10:25:55;;;;;;;9.02;4.13;;;;;;;28.57;40.59;100156.44;5049882;28;20024;-85
2023/09/21 10:28:31;;;;;;;8.68;4.45;;;;;;;28.69;39.62;100169.41;5049761;28;20409;-86
2023/09/21 10:31:09;;;;;;;7.07;4.43;;;;;;;28.35;41.33;100168.53;5050175;28;20056;-86
2023/09/21 10:33:58;;;;;;;9.07;4.40;;;;;;;29.15;39.30;100152.91;5069018;28;20024;-86
2023/09/21 10:36:27;;;;;;;8.43;4.40;;;;;;;29.81;36.73;100146.38;5045061;28;20037;-86
2023/09/21 10:39:05;;;;;;;8.55;4.85;;;;;;;28.94;39.16;100139.25;5050196;28;20028;-86
2023/09/21 10:41:31;;;;;;;10.13;5.07;;;;;;;29.09;38.54;100146.81;5033134;28;20774;-86
2023/09/21 10:44:02;;;;;;;11.15;5.25;;;;;;;29.25;39.09;100136.78;5052362;28;20033;-86
2023/09/21 10:46:31;;;;;;;10.05;4.88;;;;;;;29.33;38.11;100134.28;5058657;28;20020;-86
2023/09/21 10:49:12;;;;;;;8.75;4.90;;;;;;;29.49;37.98;100132.44;5049582;28;20055;-85
2023/09/21 10:51:40;;;;;;;11.13;5.97;;;;;;;29.78;38.49;100122.34;5065608;28;20029;-86
2023/09/21 10:54:07;;;;;;;10.77;5.00;;;;;;;29.53;38.21;100127.84;5052600;28;20432;-85
2023/09/21 10:56:33;;;;;;;7.80;4.30;;;;;;;29.97;37.78;100116.22;5059197;28;20543;-86
2023/09/21 10:58:59;;;;;;;7.03;4.55;;;;;;;30.18;37.51;100125.09;5051108;28;20482;-85
2023/09/21 11:01:25;;;;;;;8.90;4.57;;;;;;;30.01;36.66;100115.16;5049694;28;20032;-87
2023/09/21 11:03:51;;;;;;;9.52;4.60;;;;;;;30.62;36.05;100110.56;5049633;28;20064;-86
2023/09/21 11:06:17;;;;;;;11.57;4.47;;;;;;;31.05;35.52;100114.41;5060711;28;20432;-86
2023/09/21 11:08:48;;;;;;;9.77;4.50;;;;;;;29.91;37.29;100107.41;5048978;28;20031;-86
2023/09/21 11:11:15;;;;;;;7.28;4.15;;;;;;;30.05;37.43;100110.56;5049588;28;20041;-86
2023/09/21 11:13:41;;;;;;;7.07;4.93;;;;;;;30.36;36.50;100109.09;5051809;28;20095;-87
2023/09/21 11:16:09;;;;;;;7.60;4.30;;;;;;;30.57;36.62;100092.34;5049699;28;20060;-88
2023/09/21 11:18:35;;;;;;;8.65;4.70;;;;;;;30.75;37.12;100089.25;5050915;28;20409;-87
2023/09/21 11:21:00;;;;;;;7.85;4.40;;;;;;;31.15;34.80;100093.81;5053505;28;20059;-87
2023/09/21 11:23:26;;;;;;;7.75;4.15;;;;;;;30.38;35.61;100092.22;5053931;28;20032;-87